PAA2522 KBUF-KHYA
Flight info
| Callsign | PAA2522 |
|---|---|
| Flight time | 0h 51m |
| Altitude | 19000 |
| Route | JOSSY Q935 BOS V141 DUNKK |
| Aircraft | DC6/M-SDE1FGHIRWXY/S |
Departure
| Time | 2026-05-05 06:40 |
|---|---|
| Airport | Buffalo Niagara International Airport (KBUF) |
Arrival
| Time | 2026-05-05 07:31 |
|---|---|
| Airport | Cape Cod Gateway Airport (KHYA) |
| Time | Latitude | Longitude | Altitude | Speed | Heading |
|---|---|---|---|---|---|
| 2026-05-05 06:15 | 42.93662 | -78.73033 | 717 ft | 0 kts | 137° |
| 2026-05-05 06:18 | 42.93668 | -78.73040 | 716 ft | 3 kts | 137° |
| 2026-05-05 06:18 | 42.93682 | -78.73057 | 719 ft | 3 kts | 137° |
| 2026-05-05 06:18 | 42.93694 | -78.73072 | 714 ft | 0 kts | 137° |
| 2026-05-05 06:31 | 42.93686 | -78.73056 | 710 ft | 3 kts | 94° |
| 2026-05-05 06:31 | 42.93705 | -78.73036 | 715 ft | 5 kts | 8° |
| 2026-05-05 06:31 | 42.93776 | -78.73021 | 713 ft | 15 kts | 9° |
| 2026-05-05 06:32 | 42.93892 | -78.72950 | 715 ft | 21 kts | 45° |
| 2026-05-05 06:32 | 42.94002 | -78.72808 | 716 ft | 25 kts | 43° |
| 2026-05-05 06:32 | 42.94095 | -78.72687 | 720 ft | 31 kts | 43° |
| 2026-05-05 06:32 | 42.94258 | -78.72483 | 723 ft | 32 kts | 42° |
| 2026-05-05 06:33 | 42.94411 | -78.72278 | 728 ft | 30 kts | 47° |
| 2026-05-05 06:33 | 42.94553 | -78.72072 | 732 ft | 30 kts | 46° |
| 2026-05-05 06:33 | 42.94687 | -78.71885 | 736 ft | 20 kts | 39° |
| 2026-05-05 06:33 | 42.94784 | -78.71806 | 739 ft | 12 kts | 357° |
| 2026-05-05 06:34 | 42.94802 | -78.71818 | 739 ft | 0 kts | 317° |
| 2026-05-05 06:37 | 42.94813 | -78.71832 | 739 ft | 7 kts | 317° |
| 2026-05-05 06:37 | 42.94836 | -78.71924 | 738 ft | 11 kts | 228° |
| 2026-05-05 06:38 | 42.94830 | -78.71932 | 736 ft | 0 kts | 226° |
| 2026-05-05 06:39 | 42.94745 | -78.72047 | 736 ft | 43 kts | 223° |
| 2026-05-05 06:39 | 42.94403 | -78.72491 | 726 ft | 90 kts | 223° |
| 2026-05-05 06:39 | 42.93876 | -78.73214 | 764 ft | 118 kts | 225° |
| 2026-05-05 06:39 | 42.93274 | -78.74029 | 993 ft | 124 kts | 223° |
| 2026-05-05 06:40 | 42.92630 | -78.74865 | 1227 ft | 136 kts | 223° |
| 2026-05-05 06:40 | 42.91905 | -78.75823 | 1421 ft | 151 kts | 226° |
| 2026-05-05 06:40 | 42.91167 | -78.76802 | 1947 ft | 143 kts | 226° |
| 2026-05-05 06:40 | 42.90420 | -78.77741 | 2074 ft | 157 kts | 224° |
| 2026-05-05 06:41 | 42.89587 | -78.78783 | 2079 ft | 168 kts | 225° |
| 2026-05-05 06:41 | 42.88733 | -78.79851 | 2289 ft | 167 kts | 224° |
| 2026-05-05 06:41 | 42.87873 | -78.80904 | 2512 ft | 165 kts | 225° |
| 2026-05-05 06:41 | 42.86988 | -78.81890 | 2706 ft | 168 kts | 214° |
| 2026-05-05 06:42 | 42.85758 | -78.81963 | 2810 ft | 198 kts | 173° |
| 2026-05-05 06:42 | 42.84634 | -78.80669 | 2963 ft | 232 kts | 133° |
| 2026-05-05 06:42 | 42.84223 | -78.78458 | 3184 ft | 253 kts | 93° |
| 2026-05-05 06:42 | 42.84717 | -78.76143 | 3404 ft | 254 kts | 66° |
| 2026-05-05 06:43 | 42.85276 | -78.73872 | 3628 ft | 253 kts | 76° |
| 2026-05-05 06:43 | 42.85733 | -78.71558 | 3842 ft | 253 kts | 76° |
| 2026-05-05 06:43 | 42.86206 | -78.69249 | 4044 ft | 254 kts | 75° |
| 2026-05-05 06:43 | 42.86807 | -78.66988 | 4218 ft | 255 kts | 63° |
| 2026-05-05 06:44 | 42.87746 | -78.64952 | 4418 ft | 252 kts | 47° |
| 2026-05-05 06:44 | 42.88926 | -78.63261 | 4745 ft | 243 kts | 39° |
| 2026-05-05 06:44 | 42.90096 | -78.61610 | 5053 ft | 241 kts | 40° |
| 2026-05-05 06:44 | 42.91242 | -78.59965 | 5340 ft | 238 kts | 40° |
| 2026-05-05 06:45 | 42.92377 | -78.58330 | 5636 ft | 236 kts | 40° |
| 2026-05-05 06:45 | 42.93507 | -78.56705 | 5922 ft | 235 kts | 41° |
| 2026-05-05 06:45 | 42.94403 | -78.54842 | 6085 ft | 243 kts | 72° |
| 2026-05-05 06:45 | 42.94379 | -78.52589 | 6239 ft | 236 kts | 115° |
| 2026-05-05 06:46 | 42.93759 | -78.50581 | 6534 ft | 228 kts | 119° |
| 2026-05-05 06:46 | 42.93385 | -78.48455 | 6752 ft | 235 kts | 98° |
| 2026-05-05 06:46 | 42.93396 | -78.46222 | 7016 ft | 235 kts | 91° |
| 2026-05-05 06:46 | 42.93273 | -78.39837 | 7747 ft | 235 kts | 95° |
| 2026-05-05 06:47 | 42.93055 | -78.30888 | 8782 ft | 236 kts | 95° |
| 2026-05-05 06:47 | 42.92626 | -78.14163 | 10633 ft | 239 kts | 96° |
| 2026-05-05 06:47 | 42.92536 | -78.10962 | 10979 ft | 239 kts | 96° |
| 2026-05-05 06:47 | 42.92475 | -78.08725 | 11212 ft | 239 kts | 96° |
| 2026-05-05 06:48 | 42.92412 | -78.06454 | 11451 ft | 240 kts | 96° |
| 2026-05-05 06:48 | 42.92351 | -78.04180 | 11697 ft | 240 kts | 96° |
| 2026-05-05 06:48 | 42.92289 | -78.01902 | 11935 ft | 240 kts | 96° |
| 2026-05-05 06:48 | 42.92224 | -77.99620 | 12177 ft | 241 kts | 96° |
| 2026-05-05 06:49 | 42.92161 | -77.97335 | 12420 ft | 241 kts | 96° |
| 2026-05-05 06:49 | 42.92099 | -77.95103 | 12579 ft | 232 kts | 96° |
| 2026-05-05 06:49 | 42.92037 | -77.92919 | 12703 ft | 229 kts | 96° |
| 2026-05-05 06:49 | 42.91974 | -77.90765 | 12820 ft | 226 kts | 96° |
| 2026-05-05 06:50 | 42.91911 | -77.88624 | 12938 ft | 227 kts | 97° |
| 2026-05-05 06:50 | 42.91850 | -77.86465 | 13095 ft | 228 kts | 96° |
| 2026-05-05 06:50 | 42.91785 | -77.84296 | 13264 ft | 231 kts | 97° |
| 2026-05-05 06:50 | 42.91719 | -77.82099 | 13461 ft | 233 kts | 97° |
| 2026-05-05 06:51 | 42.91655 | -77.79877 | 13648 ft | 236 kts | 96° |
| 2026-05-05 06:51 | 42.91587 | -77.77610 | 13743 ft | 243 kts | 96° |
| 2026-05-05 06:51 | 42.91517 | -77.75287 | 13860 ft | 247 kts | 96° |
| 2026-05-05 06:51 | 42.91446 | -77.72925 | 14008 ft | 251 kts | 96° |
| 2026-05-05 06:52 | 42.91374 | -77.70538 | 14149 ft | 253 kts | 96° |
| 2026-05-05 06:52 | 42.91301 | -77.68134 | 14286 ft | 255 kts | 96° |
| 2026-05-05 06:52 | 42.91226 | -77.65713 | 14434 ft | 256 kts | 96° |
| 2026-05-05 06:52 | 42.91149 | -77.63280 | 14572 ft | 257 kts | 96° |
| 2026-05-05 06:53 | 42.91075 | -77.60838 | 14725 ft | 258 kts | 96° |
| 2026-05-05 06:53 | 42.90998 | -77.58393 | 14870 ft | 258 kts | 97° |
| 2026-05-05 06:53 | 42.90920 | -77.55944 | 15015 ft | 259 kts | 97° |
| 2026-05-05 06:53 | 42.90842 | -77.53492 | 15170 ft | 259 kts | 97° |
| 2026-05-05 06:54 | 42.90764 | -77.51042 | 15318 ft | 259 kts | 97° |
| 2026-05-05 06:54 | 42.90684 | -77.48588 | 15467 ft | 259 kts | 97° |
| 2026-05-05 06:54 | 42.90604 | -77.46137 | 15615 ft | 259 kts | 96° |
| 2026-05-05 06:54 | 42.90526 | -77.43685 | 15748 ft | 259 kts | 97° |
| 2026-05-05 06:55 | 42.90444 | -77.41268 | 15880 ft | 259 kts | 97° |
| 2026-05-05 06:55 | 42.90257 | -77.35650 | 16195 ft | 258 kts | 97° |
| 2026-05-05 06:55 | 42.89926 | -77.25887 | 16688 ft | 257 kts | 97° |
| 2026-05-05 06:55 | 42.89583 | -77.16091 | 17193 ft | 262 kts | 97° |
| 2026-05-05 06:56 | 42.89229 | -77.06118 | 17805 ft | 264 kts | 97° |
| 2026-05-05 06:56 | 42.88968 | -76.97848 | 18224 ft | 265 kts | 97° |
| 2026-05-05 06:56 | 42.88678 | -76.88593 | 18666 ft | 265 kts | 97° |
| 2026-05-05 06:56 | 42.88629 | -76.87073 | 18731 ft | 265 kts | 96° |
| 2026-05-05 06:57 | 42.88587 | -76.85816 | 18742 ft | 267 kts | 97° |
| 2026-05-05 06:57 | 42.88545 | -76.84542 | 18734 ft | 270 kts | 96° |
| 2026-05-05 06:57 | 42.88482 | -76.82618 | 18746 ft | 273 kts | 96° |
| 2026-05-05 06:57 | 42.88400 | -76.80009 | 18746 ft | 277 kts | 96° |
| 2026-05-05 06:58 | 42.88316 | -76.77368 | 18745 ft | 281 kts | 96° |
| 2026-05-05 06:58 | 42.88227 | -76.74694 | 18741 ft | 284 kts | 96° |
| 2026-05-05 06:58 | 42.88138 | -76.71996 | 18740 ft | 286 kts | 96° |
| 2026-05-05 06:58 | 42.88047 | -76.69277 | 18737 ft | 288 kts | 96° |
| 2026-05-05 06:59 | 42.87956 | -76.66543 | 18732 ft | 289 kts | 96° |
| 2026-05-05 06:59 | 42.87798 | -76.61836 | 18736 ft | 289 kts | 96° |
| 2026-05-05 06:59 | 42.87023 | -76.39804 | 18738 ft | 293 kts | 96° |
| 2026-05-05 06:59 | 42.86199 | -76.17473 | 18736 ft | 294 kts | 96° |
| 2026-05-05 07:00 | 42.85333 | -75.95145 | 18739 ft | 296 kts | 96° |
| 2026-05-05 07:00 | 42.84409 | -75.72713 | 18793 ft | 296 kts | 96° |
| 2026-05-05 07:00 | 42.83430 | -75.50276 | 18791 ft | 296 kts | 97° |
| 2026-05-05 07:00 | 42.82418 | -75.27930 | 18786 ft | 295 kts | 97° |
| 2026-05-05 07:01 | 42.81822 | -75.06134 | 18813 ft | 287 kts | 97° |
| 2026-05-05 07:01 | 42.80831 | -74.84346 | 18775 ft | 291 kts | 95° |
| 2026-05-05 07:01 | 42.79628 | -74.62369 | 18802 ft | 291 kts | 98° |
| 2026-05-05 07:01 | 42.78321 | -74.40441 | 18795 ft | 292 kts | 98° |
| 2026-05-05 07:02 | 42.78027 | -74.35191 | 18798 ft | 292 kts | 98° |
| 2026-05-05 07:02 | 42.76687 | -74.13093 | 18803 ft | 293 kts | 98° |
| 2026-05-05 07:02 | 42.75307 | -73.91015 | 18826 ft | 293 kts | 98° |
| 2026-05-05 07:02 | 42.73309 | -73.69039 | 18811 ft | 293 kts | 102° |
| 2026-05-05 07:03 | 42.72801 | -73.63564 | 18827 ft | 294 kts | 101° |
| 2026-05-05 07:03 | 42.72494 | -73.60817 | 18827 ft | 294 kts | 103° |
| 2026-05-05 07:03 | 42.72180 | -73.58066 | 18826 ft | 295 kts | 102° |
| 2026-05-05 07:03 | 42.71883 | -73.55307 | 18832 ft | 296 kts | 102° |
| 2026-05-05 07:04 | 42.71586 | -73.52537 | 18826 ft | 296 kts | 102° |
| 2026-05-05 07:04 | 42.70066 | -73.38693 | 18846 ft | 296 kts | 102° |
| 2026-05-05 07:04 | 42.67600 | -73.16572 | 18835 ft | 296 kts | 102° |
| 2026-05-05 07:04 | 42.65143 | -72.94859 | 18859 ft | 294 kts | 102° |
| 2026-05-05 07:05 | 42.62597 | -72.72873 | 18878 ft | 294 kts | 102° |
| 2026-05-05 07:05 | 42.60707 | -72.56701 | 18897 ft | 294 kts | 101° |
| 2026-05-05 07:05 | 42.60386 | -72.53967 | 18898 ft | 293 kts | 101° |
| 2026-05-05 07:05 | 42.60063 | -72.51234 | 18898 ft | 293 kts | 102° |
| 2026-05-05 07:06 | 42.59737 | -72.48499 | 18906 ft | 293 kts | 101° |
| 2026-05-05 07:06 | 42.59414 | -72.45767 | 18908 ft | 293 kts | 101° |
| 2026-05-05 07:06 | 42.59089 | -72.43033 | 18910 ft | 293 kts | 101° |
| 2026-05-05 07:06 | 42.58763 | -72.40302 | 18908 ft | 293 kts | 101° |
| 2026-05-05 07:07 | 42.58436 | -72.37576 | 18908 ft | 293 kts | 101° |
| 2026-05-05 07:07 | 42.58111 | -72.34851 | 18905 ft | 292 kts | 101° |
| 2026-05-05 07:07 | 42.57785 | -72.32131 | 18903 ft | 292 kts | 101° |
| 2026-05-05 07:07 | 42.57457 | -72.29410 | 18909 ft | 292 kts | 101° |
| 2026-05-05 07:08 | 42.57128 | -72.26687 | 18904 ft | 293 kts | 101° |
| 2026-05-05 07:08 | 42.56801 | -72.23963 | 18907 ft | 293 kts | 101° |
| 2026-05-05 07:08 | 42.56472 | -72.21238 | 18907 ft | 293 kts | 101° |
| 2026-05-05 07:08 | 42.56140 | -72.18510 | 18907 ft | 293 kts | 101° |
| 2026-05-05 07:09 | 42.55808 | -72.15785 | 18906 ft | 293 kts | 101° |
| 2026-05-05 07:09 | 42.55482 | -72.13097 | 18908 ft | 293 kts | 101° |
| 2026-05-05 07:09 | 42.55145 | -72.10336 | 18905 ft | 293 kts | 101° |
| 2026-05-05 07:09 | 42.54811 | -72.07614 | 18907 ft | 292 kts | 101° |
| 2026-05-05 07:10 | 42.54472 | -72.04937 | 18903 ft | 291 kts | 105° |
| 2026-05-05 07:10 | 42.53973 | -72.02248 | 18903 ft | 290 kts | 107° |
| 2026-05-05 07:10 | 42.53510 | -71.99617 | 18899 ft | 291 kts | 105° |
| 2026-05-05 07:10 | 42.53063 | -71.96906 | 18899 ft | 291 kts | 105° |
| 2026-05-05 07:11 | 42.52614 | -71.94269 | 18900 ft | 291 kts | 105° |
| 2026-05-05 07:11 | 42.52147 | -71.91597 | 18902 ft | 291 kts | 105° |
| 2026-05-05 07:11 | 42.51684 | -71.88925 | 18903 ft | 291 kts | 105° |
| 2026-05-05 07:11 | 42.51223 | -71.86248 | 18902 ft | 291 kts | 105° |
| 2026-05-05 07:12 | 42.50760 | -71.83577 | 18901 ft | 291 kts | 105° |
| 2026-05-05 07:12 | 42.50298 | -71.80908 | 18903 ft | 291 kts | 105° |
| 2026-05-05 07:12 | 42.49832 | -71.78233 | 18897 ft | 290 kts | 105° |
| 2026-05-05 07:12 | 42.49372 | -71.75592 | 18842 ft | 286 kts | 105° |
| 2026-05-05 07:13 | 42.48922 | -71.72980 | 18658 ft | 283 kts | 105° |
| 2026-05-05 07:13 | 42.48468 | -71.70390 | 18462 ft | 283 kts | 105° |
| 2026-05-05 07:13 | 42.46791 | -71.60813 | 17823 ft | 286 kts | 105° |
| 2026-05-05 07:13 | 42.43113 | -71.39990 | 16506 ft | 281 kts | 105° |
| 2026-05-05 07:14 | 42.39483 | -71.19658 | 15347 ft | 275 kts | 105° |
| 2026-05-05 07:14 | 42.37110 | -71.06489 | 14632 ft | 270 kts | 105° |
| 2026-05-05 07:14 | 42.34869 | -70.96878 | 13940 ft | 259 kts | 136° |
| 2026-05-05 07:14 | 42.33419 | -70.95523 | 13784 ft | 250 kts | 156° |
| 2026-05-05 07:15 | 42.31921 | -70.94343 | 13646 ft | 251 kts | 150° |
| 2026-05-05 07:15 | 42.30580 | -70.92820 | 13465 ft | 253 kts | 140° |
| 2026-05-05 07:15 | 42.29319 | -70.91149 | 13247 ft | 255 kts | 140° |
| 2026-05-05 07:15 | 42.28004 | -70.89530 | 13001 ft | 257 kts | 143° |
| 2026-05-05 07:16 | 42.26684 | -70.87903 | 12759 ft | 259 kts | 137° |
| 2026-05-05 07:16 | 42.25620 | -70.85957 | 12501 ft | 264 kts | 123° |
| 2026-05-05 07:16 | 42.24896 | -70.83669 | 12262 ft | 266 kts | 112° |
| 2026-05-05 07:16 | 42.24232 | -70.81344 | 12045 ft | 265 kts | 115° |
| 2026-05-05 07:17 | 42.23540 | -70.79041 | 11836 ft | 265 kts | 115° |
| 2026-05-05 07:17 | 42.22848 | -70.76741 | 11621 ft | 264 kts | 115° |
| 2026-05-05 07:17 | 42.22156 | -70.74445 | 11409 ft | 264 kts | 115° |
| 2026-05-05 07:17 | 42.21467 | -70.72156 | 11201 ft | 263 kts | 115° |
| 2026-05-05 07:18 | 42.20781 | -70.69875 | 10985 ft | 262 kts | 115° |
| 2026-05-05 07:18 | 42.20096 | -70.67598 | 10778 ft | 262 kts | 115° |
| 2026-05-05 07:18 | 42.18044 | -70.60780 | 9931 ft | 266 kts | 115° |
| 2026-05-05 07:18 | 42.15273 | -70.51550 | 8738 ft | 265 kts | 115° |
| 2026-05-05 07:19 | 42.12544 | -70.42389 | 7611 ft | 262 kts | 115° |
| 2026-05-05 07:19 | 42.09899 | -70.33324 | 6525 ft | 258 kts | 115° |
| 2026-05-05 07:19 | 42.08621 | -70.28896 | 5998 ft | 256 kts | 115° |
| 2026-05-05 07:19 | 42.07996 | -70.26707 | 5985 ft | 245 kts | 115° |
| 2026-05-05 07:20 | 42.07399 | -70.24594 | 5987 ft | 240 kts | 115° |
| 2026-05-05 07:20 | 42.06810 | -70.22506 | 5989 ft | 238 kts | 115° |
| 2026-05-05 07:20 | 42.06223 | -70.20422 | 5991 ft | 238 kts | 115° |
| 2026-05-05 07:20 | 42.05640 | -70.18348 | 5993 ft | 237 kts | 115° |
| 2026-05-05 07:21 | 42.04957 | -70.16349 | 5992 ft | 233 kts | 126° |
| 2026-05-05 07:21 | 42.03980 | -70.14653 | 5994 ft | 227 kts | 136° |
| 2026-05-05 07:21 | 42.02984 | -70.12988 | 5896 ft | 231 kts | 133° |
| 2026-05-05 07:21 | 42.01952 | -70.11238 | 5460 ft | 244 kts | 133° |
| 2026-05-05 07:22 | 42.00894 | -70.09454 | 5271 ft | 245 kts | 134° |
| 2026-05-05 07:22 | 41.99823 | -70.07653 | 5055 ft | 248 kts | 133° |
| 2026-05-05 07:22 | 41.99097 | -70.06473 | 4929 ft | 246 kts | 137° |
| 2026-05-05 07:22 | 41.97800 | -70.05007 | 4677 ft | 242 kts | 153° |
| 2026-05-05 07:23 | 41.96285 | -70.04082 | 4416 ft | 237 kts | 168° |
| 2026-05-05 07:23 | 41.94728 | -70.03326 | 4197 ft | 240 kts | 165° |
| 2026-05-05 07:23 | 41.93183 | -70.02485 | 4063 ft | 240 kts | 163° |
| 2026-05-05 07:23 | 41.91136 | -70.01367 | 3869 ft | 239 kts | 163° |
| 2026-05-05 07:24 | 41.90070 | -70.00968 | 3724 ft | 233 kts | 178° |
| 2026-05-05 07:24 | 41.88515 | -70.01293 | 3469 ft | 225 kts | 207° |
| 2026-05-05 07:24 | 41.87307 | -70.02561 | 3233 ft | 219 kts | 225° |
| 2026-05-05 07:24 | 41.86102 | -70.03824 | 3027 ft | 220 kts | 218° |
| 2026-05-05 07:25 | 41.84872 | -70.04962 | 2993 ft | 213 kts | 217° |
| 2026-05-05 07:25 | 41.83665 | -70.06069 | 2988 ft | 207 kts | 217° |
| 2026-05-05 07:25 | 41.82473 | -70.07130 | 2995 ft | 203 kts | 217° |
| 2026-05-05 07:25 | 41.81302 | -70.08165 | 2998 ft | 200 kts | 217° |
| 2026-05-05 07:26 | 41.80068 | -70.09015 | 2990 ft | 200 kts | 204° |
| 2026-05-05 07:26 | 41.78771 | -70.09642 | 2993 ft | 197 kts | 206° |
| 2026-05-05 07:26 | 41.77578 | -70.10475 | 2976 ft | 191 kts | 223° |
| 2026-05-05 07:26 | 41.76749 | -70.11832 | 2904 ft | 189 kts | 234° |
| 2026-05-05 07:27 | 41.75940 | -70.13240 | 2674 ft | 190 kts | 232° |
| 2026-05-05 07:27 | 41.75158 | -70.14511 | 2437 ft | 163 kts | 231° |
| 2026-05-05 07:27 | 41.74477 | -70.15566 | 2177 ft | 138 kts | 229° |
| 2026-05-05 07:27 | 41.73899 | -70.16481 | 1954 ft | 120 kts | 235° |
| 2026-05-05 07:28 | 41.73407 | -70.17297 | 1657 ft | 107 kts | 231° |
| 2026-05-05 07:28 | 41.72900 | -70.18065 | 1358 ft | 111 kts | 231° |
| 2026-05-05 07:28 | 41.72412 | -70.18864 | 1367 ft | 108 kts | 233° |
| 2026-05-05 07:28 | 41.71934 | -70.19614 | 1357 ft | 105 kts | 230° |
| 2026-05-05 07:29 | 41.71451 | -70.20358 | 1305 ft | 110 kts | 232° |
| 2026-05-05 07:29 | 41.70970 | -70.21178 | 1184 ft | 113 kts | 232° |
| 2026-05-05 07:29 | 41.70458 | -70.21995 | 1075 ft | 116 kts | 231° |
| 2026-05-05 07:29 | 41.69928 | -70.22806 | 975 ft | 116 kts | 230° |
| 2026-05-05 07:30 | 41.69390 | -70.23611 | 828 ft | 118 kts | 228° |
| 2026-05-05 07:30 | 41.68421 | -70.25165 | 562 ft | 102 kts | 230° |
| 2026-05-05 07:30 | 41.67973 | -70.25868 | 353 ft | 98 kts | 230° |
| 2026-05-05 07:31 | 41.67545 | -70.26556 | 137 ft | 94 kts | 232° |
| 2026-05-05 07:31 | 41.67157 | -70.27179 | 51 ft | 78 kts | 231° |
| 2026-05-05 07:31 | 41.66907 | -70.27576 | 48 ft | 24 kts | 230° |
| 2026-05-05 07:31 | 41.66800 | -70.27750 | 50 ft | 24 kts | 236° |
| 2026-05-05 07:32 | 41.66813 | -70.27927 | 51 ft | 18 kts | 278° |
| 2026-05-05 07:32 | 41.66816 | -70.27957 | 53 ft | 18 kts | 279° |